Time;durP1;ratioP1;P1;durP2;ratioP2;P2;SDS_P1;SDS_P2;PMS_P1;PMS_P2;Temp;Humidity;BMP_temperature;BMP_pressure;BME280_temperature;BME280_humidity;BME280_pressure;Samples;Min_cycle;Max_cycle;Signal;HPM_P1;HPM_P2
2023/07/17 00:02:04;;;;;;;;;;;17.70;99.90;;;;;;5051100;28;20341;-43
2023/07/17 00:04:30;;;;;;;;;;;17.70;99.90;;;;;;5068915;28;20408;-42
2023/07/17 00:06:55;;;;;;;;;;;17.70;99.90;;;;;;5068998;28;20419;-42
2023/07/17 00:09:21;;;;;;;;;;;17.70;99.90;;;;;;5069930;28;20384;-41
2023/07/17 00:11:46;;;;;;;;;;;17.60;99.90;;;;;;5069985;28;20409;-43
2023/07/17 00:14:13;;;;;;;;;;;17.70;99.90;;;;;;5069980;28;19920;-42
2023/07/17 00:16:38;;;;;;;;;;;17.60;99.90;;;;;;5069128;28;20380;-42
2023/07/17 00:19:04;;;;;;;;;;;17.60;99.90;;;;;;5068574;28;19974;-43
2023/07/17 00:21:29;;;;;;;;;;;17.60;99.90;;;;;;5067276;28;20288;-45
2023/07/17 00:23:57;;;;;;;;;;;17.60;99.90;;;;;;5071074;28;19925;-42
2023/07/17 00:26:23;;;;;;;;;;;17.60;99.90;;;;;;5069186;28;20431;-43
2023/07/17 00:28:48;;;;;;;;;;;17.60;99.90;;;;;;5068471;28;19967;-41
2023/07/17 00:31:14;;;;;;;;;;;17.60;99.90;;;;;;5070144;28;19967;-42
2023/07/17 00:33:39;;;;;;;;;;;17.60;99.90;;;;;;5070120;28;19927;-44
2023/07/17 00:36:05;;;;;;;;;;;17.60;99.90;;;;;;5071585;28;19976;-43
2023/07/17 00:38:31;;;;;;;;;;;17.60;99.90;;;;;;5069321;28;19928;-46
2023/07/17 00:40:56;;;;;;;;;;;17.60;99.90;;;;;;5070230;28;20011;-43
2023/07/17 00:43:25;;;;;;;;;;;17.60;99.90;;;;;;5070017;28;19955;-41
2023/07/17 00:45:51;;;;;;;;;;;17.60;99.90;;;;;;5070163;28;20408;-41
2023/07/17 00:48:16;;;;;;;;;;;17.60;99.90;;;;;;5072041;28;20044;-42
2023/07/17 00:50:42;;;;;;;;;;;17.50;99.90;;;;;;5069918;28;19958;-42
2023/07/17 00:53:07;;;;;;;;;;;17.50;99.90;;;;;;5070201;28;19920;-41
2023/07/17 00:55:34;;;;;;;;;;;17.60;99.90;;;;;;5068135;28;19942;-42
2023/07/17 00:57:59;;;;;;;;;;;17.50;99.90;;;;;;5069562;28;19920;-41
2023/07/17 01:00:25;;;;;;;;;;;17.50;99.90;;;;;;5070161;28;20353;-44
2023/07/17 01:02:52;;;;;;;;;;;17.40;99.90;;;;;;5067897;28;20555;-42
2023/07/17 01:05:17;;;;;;;;;;;17.40;99.90;;;;;;5066738;28;19920;-45
2023/07/17 01:07:43;;;;;;;;;;;17.40;99.90;;;;;;5068201;28;19927;-42
2023/07/17 01:10:09;;;;;;;;;;;17.40;99.90;;;;;;5068863;28;19927;-42
2023/07/17 01:12:37;;;;;;;;;;;17.40;99.90;;;;;;5066472;28;19977;-43
2023/07/17 01:15:03;;;;;;;;;;;17.40;99.90;;;;;;5068079;28;19999;-44
2023/07/17 01:17:29;;;;;;;;;;;17.40;99.90;;;;;;5069052;28;19921;-42
2023/07/17 01:19:54;;;;;;;;;;;17.40;99.90;;;;;;5068194;28;20292;-44
2023/07/17 01:22:22;;;;;;;;;;;17.30;99.90;;;;;;5068825;28;20097;-44
2023/07/17 01:24:48;;;;;;;;;;;17.30;99.90;;;;;;5069352;28;20063;-43
2023/07/17 01:27:13;;;;;;;;;;;17.30;99.90;;;;;;5068636;28;20062;-42
2023/07/17 01:29:39;;;;;;;;;;;17.30;99.90;;;;;;5069632;28;20360;-42
2023/07/17 01:32:04;;;;;;;;;;;17.30;99.90;;;;;;5069086;28;20361;-45
2023/07/17 01:34:30;;;;;;;;;;;17.20;99.90;;;;;;5069080;28;19921;-43
2023/07/17 01:36:56;;;;;;;;;;;;;;;;;;5067855;28;20396;-42
2023/07/17 01:39:24;;;;;;;;;;;17.20;99.90;;;;;;5069110;28;20373;-43
2023/07/17 01:41:50;;;;;;;;;;;17.20;99.90;;;;;;5071195;28;19947;-41
2023/07/17 01:44:15;;;;;;;;;;;17.20;99.90;;;;;;5071935;28;19924;-41
2023/07/17 01:46:41;;;;;;;;;;;17.10;99.90;;;;;;5073377;28;20412;-43
2023/07/17 01:49:07;;;;;;;;;;;17.10;99.90;;;;;;5075075;28;19921;-43
2023/07/17 01:51:33;;;;;;;;;;;17.10;99.90;;;;;;5071820;28;19968;-41
2023/07/17 01:53:59;;;;;;;;;;;17.00;99.90;;;;;;5073106;28;20481;-42
2023/07/17 01:56:24;;;;;;;;;;;17.00;99.90;;;;;;5073129;28;19926;-42
2023/07/17 01:58:50;;;;;;;;;;;16.90;99.90;;;;;;5071130;28;19959;-43
2023/07/17 02:01:16;;;;;;;;;;;;;;;;;;5073145;28;20023;-42
2023/07/17 02:03:41;;;;;;;;;;;16.80;99.90;;;;;;5072860;28;19996;-42
2023/07/17 02:06:07;;;;;;;;;;;16.80;99.90;;;;;;5071403;28;20300;-41
2023/07/17 02:08:33;;;;;;;;;;;16.80;99.90;;;;;;5067864;28;20016;-41
2023/07/17 02:10:58;;;;;;;;;;;16.70;99.90;;;;;;5068387;28;19920;-42
2023/07/17 02:13:24;;;;;;;;;;;16.60;99.90;;;;;;5068033;28;19963;-42
2023/07/17 02:15:50;;;;;;;;;;;16.90;99.90;;;;;;5066860;28;20305;-42
2023/07/17 02:18:15;;;;;;;;;;;16.60;99.90;;;;;;5067220;28;19924;-42
2023/07/17 02:20:41;;;;;;;;;;;16.60;99.90;;;;;;5067486;28;19955;-43
2023/07/17 02:23:07;;;;;;;;;;;16.70;99.90;;;;;;5067957;28;20340;-42
2023/07/17 02:25:33;;;;;;;;;;;16.70;99.90;;;;;;5067864;28;20011;-42
2023/07/17 02:27:59;;;;;;;;;;;16.60;99.90;;;;;;5067246;28;19941;-41
2023/07/17 02:30:24;;;;;;;;;;;16.60;99.90;;;;;;5067151;28;19978;-42
2023/07/17 02:32:50;;;;;;;;;;;16.50;99.90;;;;;;5067966;28;19920;-43
2023/07/17 02:35:15;;;;;;;;;;;16.50;99.90;;;;;;5062743;28;19947;-41
2023/07/17 02:37:41;;;;;;;;;;;;;;;;;;5068682;28;19973;-42
2023/07/17 02:40:10;;;;;;;;;;;16.40;99.90;;;;;;5068552;28;20015;-42
2023/07/17 02:42:36;;;;;;;;;;;16.40;99.90;;;;;;5073238;28;20325;-41
2023/07/17 02:45:03;;;;;;;;;;;16.30;99.90;;;;;;5072431;28;19946;-42
2023/07/17 02:47:29;;;;;;;;;;;16.20;99.90;;;;;;5072222;28;19924;-43
2023/07/17 02:49:54;;;;;;;;;;;16.20;99.90;;;;;;5073531;28;20416;-44
2023/07/17 02:52:20;;;;;;;;;;;16.10;99.90;;;;;;5073876;28;20296;-42
2023/07/17 02:54:45;;;;;;;;;;;16.10;99.90;;;;;;5070707;28;19931;-42
2023/07/17 02:57:11;;;;;;;;;;;16.10;99.90;;;;;;5072544;28;19920;-42
2023/07/17 02:59:37;;;;;;;;;;;16.00;99.90;;;;;;5071353;28;19975;-41
2023/07/17 03:02:04;;;;;;;;;;;16.00;99.90;;;;;;5072253;28;20291;-42
2023/07/17 03:04:29;;;;;;;;;;;15.90;99.90;;;;;;5072138;28;19927;-41
2023/07/17 03:06:55;;;;;;;;;;;15.90;99.90;;;;;;5071599;28;19924;-42
2023/07/17 03:09:20;;;;;;;;;;;15.90;99.90;;;;;;5072002;28;19943;-43
2023/07/17 03:11:46;;;;;;;;;;;15.90;99.90;;;;;;5072494;28;19935;-43
2023/07/17 03:14:11;;;;;;;;;;;15.80;99.90;;;;;;5071863;28;19920;-41
2023/07/17 03:16:37;;;;;;;;;;;15.80;99.90;;;;;;5070926;28;19974;-43
2023/07/17 03:19:03;;;;;;;;;;;15.70;99.90;;;;;;5071068;28;19927;-44
2023/07/17 03:21:28;;;;;;;;;;;15.70;99.90;;;;;;5071601;28;20383;-41
2023/07/17 03:23:54;;;;;;;;;;;15.70;99.90;;;;;;5071564;28;19920;-41
2023/07/17 03:26:19;;;;;;;;;;;15.70;99.90;;;;;;5071752;28;19920;-43
2023/07/17 03:28:45;;;;;;;;;;;15.60;99.90;;;;;;5070566;28;19921;-42
2023/07/17 03:31:11;;;;;;;;;;;15.60;99.90;;;;;;5053198;28;19928;-42
2023/07/17 03:33:37;;;;;;;;;;;15.60;99.90;;;;;;5070773;28;19920;-42
2023/07/17 03:36:02;;;;;;;;;;;15.60;99.90;;;;;;5072749;28;19927;-42
2023/07/17 03:38:31;;;;;;;;;;;15.50;99.90;;;;;;5072035;28;20349;-46
2023/07/17 03:40:56;;;;;;;;;;;15.50;99.90;;;;;;5056802;28;19924;-43
2023/07/17 03:43:22;;;;;;;;;;;15.50;99.90;;;;;;5057212;28;19920;-43
2023/07/17 03:45:51;;;;;;;;;;;15.50;99.90;;;;;;5074990;28;19920;-42
2023/07/17 03:48:16;;;;;;;;;;;15.40;99.90;;;;;;5075185;28;20435;-42
2023/07/17 03:50:42;;;;;;;;;;;15.40;99.90;;;;;;5075317;28;19924;-42
2023/07/17 03:53:08;;;;;;;;;;;15.40;99.90;;;;;;5075520;28;19966;-42
2023/07/17 03:55:33;;;;;;;;;;;15.40;99.90;;;;;;5074677;28;19916;-42
2023/07/17 03:57:59;;;;;;;;;;;15.40;99.90;;;;;;5074721;28;19924;-42
2023/07/17 04:00:24;;;;;;;;;;;15.30;99.90;;;;;;5071400;28;19924;-41
2023/07/17 04:02:50;;;;;;;;;;;15.30;99.90;;;;;;5072798;28;19920;-42
2023/07/17 04:05:15;;;;;;;;;;;15.30;99.90;;;;;;5073316;28;19936;-42
2023/07/17 04:07:41;;;;;;;;;;;15.30;99.90;;;;;;5072222;28;19939;-43
2023/07/17 04:10:07;;;;;;;;;;;15.30;99.90;;;;;;5075192;28;20450;-41
2023/07/17 04:12:32;;;;;;;;;;;15.30;99.90;;;;;;5072601;28;20021;-41
2023/07/17 04:14:59;;;;;;;;;;;15.30;99.90;;;;;;5069441;28;19928;-43
2023/07/17 04:17:25;;;;;;;;;;;15.40;99.90;;;;;;5070723;28;20319;-41
2023/07/17 04:19:50;;;;;;;;;;;15.40;99.90;;;;;;5068129;28;19928;-45
2023/07/17 04:22:19;;;;;;;;;;;15.50;99.90;;;;;;5067947;28;19928;-42
2023/07/17 04:24:44;;;;;;;;;;;15.50;99.90;;;;;;5069806;28;20285;-41
2023/07/17 04:27:10;;;;;;;;;;;15.60;99.90;;;;;;5070979;28;19999;-43
2023/07/17 04:29:36;;;;;;;;;;;15.60;99.90;;;;;;5069030;28;21195;-41
2023/07/17 04:32:01;;;;;;;;;;;15.70;99.90;;;;;;5070158;28;19924;-43
2023/07/17 04:34:28;;;;;;;;;;;15.70;99.90;;;;;;5070454;28;19921;-42
2023/07/17 04:36:54;;;;;;;;;;;15.70;99.90;;;;;;5070122;28;20396;-46
2023/07/17 04:39:20;;;;;;;;;;;15.80;99.90;;;;;;5069919;28;19920;-43
2023/07/17 04:41:45;;;;;;;;;;;15.90;99.90;;;;;;5071317;28;19926;-43
2023/07/17 04:44:13;;;;;;;;;;;;;;;;;;5073218;28;19920;-42
2023/07/17 04:46:39;;;;;;;;;;;17.50;99.90;;;;;;5074122;28;20377;-43
2023/07/17 04:49:05;;;;;;;;;;;;;;;;;;5059732;28;19921;-43
2023/07/17 04:51:31;;;;;;;;;;;19.20;99.90;;;;;;5064936;28;19927;-43
2023/07/17 04:53:59;;;;;;;;;;;19.70;99.90;;;;;;5076148;28;19943;-43
2023/07/17 04:56:25;;;;;;;;;;;20.40;99.90;;;;;;5074502;28;19921;-44
2023/07/17 04:58:50;;;;;;;;;;;21.00;99.90;;;;;;5072838;28;19920;-44
2023/07/17 05:01:16;;;;;;;;;;;21.40;99.90;;;;;;5074403;28;19963;-44
2023/07/17 05:03:41;;;;;;;;;;;21.70;99.90;;;;;;5074612;28;20388;-43
2023/07/17 05:06:07;;;;;;;;;;;22.20;99.90;;;;;;5061167;28;20496;-45
2023/07/17 05:08:33;;;;;;;;;;;22.70;99.90;;;;;;5073868;28;19935;-44
2023/07/17 05:10:59;;;;;;;;;;;23.10;99.90;;;;;;5073098;28;19927;-41
2023/07/17 05:13:25;;;;;;;;;;;23.40;99.90;;;;;;5077404;28;20054;-40
2023/07/17 05:15:51;;;;;;;;;;;23.70;99.90;;;;;;5072665;28;19920;-40
2023/07/17 05:18:17;;;;;;;;;;;23.80;99.90;;;;;;5035683;28;19932;-40
2023/07/17 05:20:43;;;;;;;;;;;24.00;99.90;;;;;;5068287;28;20383;-40
2023/07/17 05:23:09;;;;;;;;;;;24.60;99.90;;;;;;5070186;28;20016;-43
2023/07/17 05:25:34;;;;;;;;;;;24.60;99.90;;;;;;5067269;28;19920;-41
2023/07/17 05:28:00;;;;;;;;;;;24.80;99.90;;;;;;5068066;28;19974;-42
2023/07/17 05:30:25;;;;;;;;;;;24.70;99.90;;;;;;5065779;28;20486;-43
2023/07/17 05:32:54;;;;;;;;;;;25.10;99.90;;;;;;5068421;28;19955;-41
2023/07/17 05:35:19;;;;;;;;;;;25.20;99.90;;;;;;5053180;28;19920;-42
2023/07/17 05:37:45;;;;;;;;;;;25.60;99.90;;;;;;5068252;28;19916;-40
2023/07/17 05:40:11;;;;;;;;;;;25.70;99.90;;;;;;5071738;28;20031;-43
2023/07/17 05:42:36;;;;;;;;;;;25.80;99.90;;;;;;5067553;28;20372;-43
2023/07/17 05:45:03;;;;;;;;;;;26.10;99.90;;;;;;5069939;28;20250;-42
2023/07/17 05:47:29;;;;;;;;;;;26.40;99.90;;;;;;5048675;28;20320;-40
2023/07/17 05:49:54;;;;;;;;;;;26.30;99.90;;;;;;5068004;28;20011;-40
2023/07/17 05:52:20;;;;;;;;;;;26.30;99.90;;;;;;5068713;28;19950;-42
2023/07/17 05:54:45;;;;;;;;;;;26.40;99.90;;;;;;5068566;28;19963;-42
2023/07/17 05:57:11;;;;;;;;;;;26.70;99.90;;;;;;5067036;28;20277;-45
2023/07/17 05:59:36;;;;;;;;;;;26.80;99.90;;;;;;5069069;28;19924;-40
2023/07/17 06:02:02;;;;;;;;;;;26.80;99.90;;;;;;5034145;28;19920;-42
2023/07/17 06:04:28;;;;;;;;;;;26.60;99.40;;;;;;5069061;28;19943;-40
2023/07/17 06:06:53;;;;;;;;;;;27.00;99.80;;;;;;5066910;28;19920;-45
2023/07/17 06:09:19;;;;;;;;;;;26.90;99.50;;;;;;5084278;28;19921;-41
2023/07/17 06:11:45;;;;;;;;;;;27.10;99.40;;;;;;5067560;28;19963;-42
2023/07/17 06:14:11;;;;;;;;;;;26.80;99.40;;;;;;5069161;28;20421;-42
2023/07/17 06:16:36;;;;;;;;;;;27.00;99.20;;;;;;5067788;28;20353;-43
2023/07/17 06:19:03;;;;;;;;;;;26.90;98.50;;;;;;5066162;28;19978;-41
2023/07/17 06:21:28;;;;;;;;;;;26.90;98.80;;;;;;5066518;28;19959;-41
2023/07/17 06:23:54;;;;;;;;;;;27.20;98.40;;;;;;5068780;28;19987;-42
2023/07/17 06:26:19;;;;;;;;;;;27.40;98.20;;;;;;5067140;28;19920;-41
2023/07/17 06:28:47;;;;;;;;;;;27.20;98.10;;;;;;5064107;28;19921;-41
2023/07/17 06:31:12;;;;;;;;;;;27.30;98.30;;;;;;5066060;28;20247;-43
2023/07/17 06:33:38;;;;;;;;;;;26.90;98.50;;;;;;5066618;28;19920;-42
2023/07/17 06:36:03;;;;;;;;;;;26.70;98.80;;;;;;5068530;28;19986;-40
2023/07/17 06:38:29;;;;;;;;;;;26.20;98.10;;;;;;5068687;28;19931;-43
2023/07/17 06:40:55;;;;;;;;;;;26.50;98.70;;;;;;5069704;28;20285;-42
2023/07/17 06:43:21;;;;;;;;;;;25.60;98.50;;;;;;5072552;28;19975;-42
2023/07/17 06:45:47;;;;;;;;;;;24.70;98.90;;;;;;5072598;28;19924;-44
2023/07/17 06:48:12;;;;;;;;;;;24.60;99.90;;;;;;5075046;28;19943;-43
2023/07/17 06:50:38;;;;;;;;;;;24.90;99.90;;;;;;5075417;28;19920;-43
2023/07/17 06:53:04;;;;;;;;;;;25.10;99.90;;;;;;5078771;28;20236;-42
2023/07/17 06:55:29;;;;;;;;;;;25.20;99.90;;;;;;5076373;28;19920;-43
2023/07/17 06:57:55;;;;;;;;;;;25.00;99.90;;;;;;5076440;28;19967;-41
2023/07/17 07:00:20;;;;;;;;;;;25.10;99.90;;;;;;5075148;28;19920;-43
2023/07/17 07:02:46;;;;;;;;;;;25.60;99.70;;;;;;5075160;28;19932;-42
2023/07/17 07:05:12;;;;;;;;;;;25.40;99.50;;;;;;5075137;28;19921;-42
2023/07/17 07:07:37;;;;;;;;;;;25.60;99.90;;;;;;5076697;28;19924;-42
2023/07/17 07:10:03;;;;;;;;;;;25.30;99.30;;;;;;5072722;28;20211;-42
2023/07/17 07:12:29;;;;;;;;;;;24.80;99.00;;;;;;5069439;28;19988;-41
2023/07/17 07:14:55;;;;;;;;;;;24.70;99.90;;;;;;5071795;28;20288;-42
2023/07/17 07:17:20;;;;;;;;;;;24.50;99.90;;;;;;5071940;28;19924;-41
2023/07/17 07:19:46;;;;;;;;;;;24.00;99.90;;;;;;5069866;28;19978;-42
2023/07/17 07:22:11;;;;;;;;;;;23.30;99.90;;;;;;5068264;28;19920;-43
2023/07/17 07:24:41;;;;;;;;;;;22.80;99.90;;;;;;5071096;28;19924;-42
2023/07/17 07:27:07;;;;;;;;;;;23.20;99.90;;;;;;5062179;28;20024;-43
2023/07/17 07:29:32;;;;;;;;;;;24.00;99.90;;;;;;5068470;28;19993;-42
2023/07/17 07:31:58;;;;;;;;;;;24.70;99.90;;;;;;5069084;28;19928;-44
2023/07/17 07:34:23;;;;;;;;;;;25.20;99.90;;;;;;5068950;28;20009;-41
2023/07/17 07:36:49;;;;;;;;;;;25.20;99.70;;;;;;5070558;28;19927;-44
2023/07/17 07:39:14;;;;;;;;;;;25.10;99.50;;;;;;5068513;28;19943;-44
2023/07/17 07:41:40;;;;;;;;;;;25.40;99.70;;;;;;5066155;28;19927;-43
2023/07/17 07:44:06;;;;;;;;;;;24.80;99.70;;;;;;5071104;28;20033;-42
2023/07/17 07:46:31;;;;;;;;;;;24.00;99.60;;;;;;5070185;28;19920;-43
2023/07/17 07:48:57;;;;;;;;;;;23.60;99.90;;;;;;5067873;28;19931;-42
2023/07/17 07:51:23;;;;;;;;;;;23.20;99.90;;;;;;5067565;28;19967;-42
2023/07/17 07:53:48;;;;;;;;;;;23.30;99.90;;;;;;5070053;28;20143;-42
2023/07/17 07:56:14;;;;;;;;;;;23.30;99.90;;;;;;5066633;28;19920;-41
2023/07/17 07:58:39;;;;;;;;;;;23.30;99.90;;;;;;5063888;28;19963;-41
2023/07/17 08:01:05;;;;;;;;;;;23.20;99.90;;;;;;5070336;28;19927;-42
2023/07/17 08:03:33;;;;;;;;;;;23.20;99.90;;;;;;5067449;28;19927;-44
2023/07/17 08:05:59;;;;;;;;;;;23.10;99.90;;;;;;5068096;28;19925;-43
2023/07/17 08:08:24;;;;;;;;;;;22.70;99.90;;;;;;5068345;28;19921;-42
2023/07/17 08:10:53;;;;;;;;;;;22.60;99.90;;;;;;5068686;28;19931;-45
2023/07/17 08:13:19;;;;;;;;;;;22.80;99.90;;;;;;5069827;28;20274;-43
2023/07/17 08:15:44;;;;;;;;;;;22.60;99.90;;;;;;5070353;28;19986;-44
2023/07/17 08:18:10;;;;;;;;;;;22.60;99.90;;;;;;5067182;28;20015;-40
2023/07/17 08:20:35;;;;;;;;;;;22.60;99.90;;;;;;5069254;28;19920;-40
2023/07/17 08:23:01;;;;;;;;;;;22.40;99.90;;;;;;5064504;28;19921;-43
2023/07/17 08:25:26;;;;;;;;;;;22.20;99.90;;;;;;5063865;28;20377;-43
2023/07/17 08:27:53;;;;;;;;;;;22.10;99.90;;;;;;5065924;28;19929;-43
2023/07/17 08:30:19;;;;;;;;;;;22.10;99.90;;;;;;5066746;28;19960;-42
2023/07/17 08:32:44;;;;;;;;;;;21.90;99.90;;;;;;5066928;28;19948;-43
2023/07/17 08:35:10;;;;;;;;;;;22.00;99.90;;;;;;5063701;28;19927;-45
2023/07/17 08:37:35;;;;;;;;;;;22.00;99.90;;;;;;5065301;28;19920;-45
2023/07/17 08:40:01;;;;;;;;;;;22.10;99.90;;;;;;5066739;28;19967;-44
2023/07/17 08:42:27;;;;;;;;;;;22.10;99.90;;;;;;5067560;28;19931;-42
2023/07/17 08:44:52;;;;;;;;;;;22.00;99.90;;;;;;5070498;28;19928;-41
2023/07/17 08:47:18;;;;;;;;;;;21.90;99.90;;;;;;5069707;28;19920;-43
2023/07/17 08:49:45;;;;;;;;;;;21.90;99.90;;;;;;5049197;28;19924;-41
2023/07/17 08:52:11;;;;;;;;;;;21.80;99.90;;;;;;5066184;28;20288;-42
2023/07/17 08:54:36;;;;;;;;;;;22.00;99.90;;;;;;5064187;28;20393;-43
2023/07/17 08:57:03;;;;;;;;;;;22.40;99.90;;;;;;5065372;28;20388;-41
2023/07/17 08:59:34;;;;;;;;;;;22.40;99.90;;;;;;5066466;28;19982;-41
2023/07/17 09:02:00;;;;;;;;;;;22.90;99.90;;;;;;5060461;28;19927;-41
2023/07/17 09:04:26;;;;;;;;;;;22.80;99.90;;;;;;5067615;28;19927;-41
2023/07/17 09:06:52;;;;;;;;;;;22.90;99.90;;;;;;5066776;28;19920;-42
2023/07/17 09:09:19;;;;;;;;;;;22.60;99.90;;;;;;5069723;28;19920;-42
2023/07/17 09:11:44;;;;;;;;;;;22.70;99.90;;;;;;5066610;28;19968;-42
2023/07/17 09:14:10;;;;;;;;;;;23.00;99.90;;;;;;5064751;28;20415;-42
2023/07/17 09:16:38;;;;;;;;;;;23.30;99.90;;;;;;5069141;28;19920;-45
2023/07/17 09:19:03;;;;;;;;;;;23.40;99.90;;;;;;5067335;28;19966;-45
2023/07/17 09:21:29;;;;;;;;;;;23.60;99.90;;;;;;5060997;28;19924;-44
2023/07/17 09:23:56;;;;;;;;;;;23.50;99.90;;;;;;5065294;28;20014;-41
2023/07/17 09:26:24;;;;;;;;;;;23.20;99.90;;;;;;5066026;28;19929;-42
2023/07/17 09:28:55;;;;;;;;;;;22.90;99.90;;;;;;5069192;28;19924;-42
2023/07/17 09:31:27;;;;;;;;;;;22.50;99.90;;;;;;5073735;28;19996;-41
2023/07/17 09:33:53;;;;;;;;;;;22.30;99.90;;;;;;5073712;28;19972;-43
2023/07/17 09:36:19;;;;;;;;;;;22.20;99.90;;;;;;5073198;28;19927;-44
2023/07/17 09:38:49;;;;;;;;;;;22.10;99.90;;;;;;5068202;28;20008;-42
2023/07/17 09:41:24;;;;;;;;;;;21.80;99.90;;;;;;5069045;28;20384;-43
2023/07/17 09:43:53;;;;;;;;;;;21.00;99.90;;;;;;5072944;28;20003;-43
2023/07/17 09:46:19;;;;;;;;;;;20.40;99.90;;;;;;5071378;28;19928;-43
2023/07/17 09:48:45;;;;;;;;;;;20.10;99.90;;;;;;5073306;28;19920;-43
2023/07/17 09:51:12;;;;;;;;;;;19.80;99.90;;;;;;5072267;28;19920;-43
2023/07/17 09:53:39;;;;;;;;;;;19.70;99.90;;;;;;5072759;28;19924;-42
2023/07/17 09:56:05;;;;;;;;;;;19.70;99.90;;;;;;5070032;28;19931;-42
2023/07/17 09:58:32;;;;;;;;;;;19.60;99.90;;;;;;5073348;28;20226;-46
2023/07/17 10:00:58;;;;;;;;;;;19.60;99.90;;;;;;5072024;28;19920;-42
2023/07/17 10:03:24;;;;;;;;;;;19.60;99.90;;;;;;5073280;28;20008;-47
2023/07/17 10:05:53;;;;;;;;;;;19.60;99.90;;;;;;5070653;28;19920;-43
2023/07/17 10:08:20;;;;;;;;;;;19.70;99.90;;;;;;5071834;28;19968;-43
2023/07/17 10:10:45;;;;;;;;;;;20.30;99.90;;;;;;5050969;28;19923;-42
2023/07/17 10:13:11;;;;;;;;;;;20.70;99.90;;;;;;5053365;28;20015;-42
2023/07/17 10:15:37;;;;;;;;;;;21.00;99.90;;;;;;5065128;28;19924;-43
2023/07/17 10:18:06;;;;;;;;;;;21.20;99.90;;;;;;5072277;28;19943;-42
2023/07/17 10:20:32;;;;;;;;;;;21.40;99.90;;;;;;5070806;28;19920;-43
2023/07/17 10:22:57;;;;;;;;;;;21.50;99.90;;;;;;5071529;28;20293;-44
2023/07/17 10:25:25;;;;;;;;;;;21.80;99.90;;;;;;5070184;28;19949;-45
2023/07/17 10:27:57;;;;;;;;;;;22.10;99.90;;;;;;5068515;28;19921;-43
2023/07/17 10:30:33;;;;;;;;;;;22.20;99.90;;;;;;5064460;28;19921;-46
2023/07/17 10:33:08;;;;;;;;;;;22.50;99.90;;;;;;5072104;28;19966;-43
2023/07/17 10:35:44;;;;;;;;;;;22.90;99.90;;;;;;5070937;28;19921;-44
2023/07/17 10:38:10;;;;;;;;;;;22.80;99.90;;;;;;5072186;28;19966;-42
2023/07/17 10:40:36;;;;;;;;;;;22.50;99.90;;;;;;5070989;28;20335;-45
2023/07/17 10:43:12;;;;;;;;;;;22.00;99.90;;;;;;5070276;28;20027;-44
2023/07/17 10:45:37;;;;;;;;;;;21.50;99.90;;;;;;5064940;28;19957;-46
2023/07/17 10:48:04;;;;;;;;;;;21.10;99.90;;;;;;5063799;28;19920;-44
2023/07/17 10:50:29;;;;;;;;;;;20.70;99.90;;;;;;5066793;28;19959;-42
2023/07/17 10:53:02;;;;;;;;;;;20.40;99.90;;;;;;5063113;28;19968;-43
2023/07/17 10:55:28;;;;;;;;;;;20.30;99.90;;;;;;5070893;28;19974;-44
2023/07/17 10:57:55;;;;;;;;;;;20.30;99.90;;;;;;5066472;28;19924;-43
2023/07/17 11:00:20;;;;;;;;;;;20.70;99.90;;;;;;5068466;28;19965;-42
2023/07/17 11:02:49;;;;;;;;;;;21.10;99.90;;;;;;5067044;28;20011;-42
2023/07/17 11:05:15;;;;;;;;;;;21.50;99.90;;;;;;5065309;28;20024;-42
2023/07/17 11:07:40;;;;;;;;;;;21.50;99.90;;;;;;5068986;28;19920;-42
2023/07/17 11:10:10;;;;;;;;;;;21.50;99.90;;;;;;5021364;28;1119724;-42
2023/07/17 11:12:35;;;;;;;;;;;21.40;99.90;;;;;;5063359;28;20375;-42
2023/07/17 11:15:01;;;;;;;;;;;21.80;99.90;;;;;;5071092;28;20011;-42
2023/07/17 11:17:26;;;;;;;;;;;22.20;99.90;;;;;;5066294;28;19932;-43
2023/07/17 11:20:04;;;;;;;;;;;22.70;99.90;;;;;;5067183;28;19972;-42
2023/07/17 11:22:30;;;;;;;;;;;22.90;99.90;;;;;;5068123;28;19920;-43
2023/07/17 11:24:56;;;;;;;;;;;23.10;99.90;;;;;;5069236;28;20395;-42
2023/07/17 11:27:22;;;;;;;;;;;23.10;99.90;;;;;;5070573;28;19994;-44
2023/07/17 11:29:50;;;;;;;;;;;22.80;99.90;;;;;;5069721;28;20098;-42
2023/07/17 11:32:19;;;;;;;;;;;22.50;99.90;;;;;;5072340;28;20369;-42
2023/07/17 11:34:58;;;;;;;;;;;22.70;99.90;;;;;;5074183;28;19988;-43
2023/07/17 11:37:34;;;;;;;;;;;22.50;99.90;;;;;;5076155;28;20011;-43
2023/07/17 11:40:07;;;;;;;;;;;22.60;99.90;;;;;;5072776;28;20406;-43
2023/07/17 11:42:55;;;;;;;;;;;22.30;99.90;;;;;;5073972;28;19920;-44
2023/07/17 11:45:27;;;;;;;;;;;22.20;99.90;;;;;;5066320;28;19920;-43
2023/07/17 11:47:54;;;;;;;;;;;22.00;99.90;;;;;;5066821;28;19920;-45
2023/07/17 11:50:23;;;;;;;;;;;22.00;99.90;;;;;;5062073;28;19928;-44
2023/07/17 11:52:48;;;;;;;;;;;22.00;99.90;;;;;;5067059;28;19931;-44
2023/07/17 11:55:19;;;;;;;;;;;21.80;99.90;;;;;;5066408;28;19920;-44
2023/07/17 11:57:48;;;;;;;;;;;21.90;99.90;;;;;;5067565;28;19942;-45
2023/07/17 12:00:14;;;;;;;;;;;21.90;99.90;;;;;;5066060;28;20029;-43
2023/07/17 12:02:41;;;;;;;;;;;21.90;99.90;;;;;;5067577;28;19932;-44
2023/07/17 12:05:06;;;;;;;;;;;21.90;99.90;;;;;;5069044;28;19927;-43
2023/07/17 12:07:33;;;;;;;;;;;21.80;99.90;;;;;;5067661;28;19924;-44
2023/07/17 12:09:59;;;;;;;;;;;21.70;99.90;;;;;;5066146;28;19956;-44
2023/07/17 12:12:24;;;;;;;;;;;21.40;99.90;;;;;;5066381;28;19978;-45
2023/07/17 12:14:50;;;;;;;;;;;20.90;99.90;;;;;;5068662;28;20000;-43
2023/07/17 12:17:16;;;;;;;;;;;20.80;99.90;;;;;;5065610;28;20339;-43
2023/07/17 12:19:42;;;;;;;;;;;20.60;99.90;;;;;;5066645;28;19920;-42
2023/07/17 12:22:09;;;;;;;;;;;20.60;99.90;;;;;;5065134;28;20352;-42
2023/07/17 12:24:34;;;;;;;;;;;20.50;99.90;;;;;;5064636;28;19928;-44
2023/07/17 12:27:00;;;;;;;;;;;20.50;99.90;;;;;;5068176;28;19928;-42
2023/07/17 12:29:25;;;;;;;;;;;20.50;99.90;;;;;;5066325;28;19932;-43
2023/07/17 12:31:51;;;;;;;;;;;20.50;99.90;;;;;;5068954;28;19928;-45
2023/07/17 12:34:17;;;;;;;;;;;20.50;99.90;;;;;;5068201;28;19932;-43
2023/07/17 12:36:42;;;;;;;;;;;20.80;99.90;;;;;;5069319;28;19928;-43
2023/07/17 12:39:12;;;;;;;;;;;20.90;99.90;;;;;;5065040;28;19920;-44
2023/07/17 12:41:37;;;;;;;;;;;21.00;99.90;;;;;;5067534;28;20372;-43
2023/07/17 12:44:04;;;;;;;;;;;21.00;99.90;;;;;;5065648;28;19928;-43
2023/07/17 12:46:29;;;;;;;;;;;21.10;99.90;;;;;;5065642;28;19920;-42
2023/07/17 12:48:55;;;;;;;;;;;21.20;99.90;;;;;;5047643;28;19975;-43
2023/07/17 12:51:20;;;;;;;;;;;21.20;99.90;;;;;;5064904;28;20400;-43
2023/07/17 12:53:46;;;;;;;;;;;21.20;99.90;;;;;;5069567;28;20312;-47
2023/07/17 12:56:11;;;;;;;;;;;21.00;99.90;;;;;;5068148;28;21687;-42
2023/07/17 12:58:37;;;;;;;;;;;20.80;99.90;;;;;;5064837;28;19952;-46
2023/07/17 13:01:02;;;;;;;;;;;20.70;99.90;;;;;;5064876;28;19920;-44
2023/07/17 13:03:28;;;;;;;;;;;20.50;99.90;;;;;;5065655;28;19935;-47
2023/07/17 13:05:53;;;;;;;;;;;20.30;99.90;;;;;;5066508;28;19928;-44
2023/07/17 13:08:20;;;;;;;;;;;20.10;99.90;;;;;;5063407;28;19979;-43
2023/07/17 13:10:45;;;;;;;;;;;19.70;99.90;;;;;;5064661;28;19970;-47
2023/07/17 13:13:11;;;;;;;;;;;;;;;;;;5064504;28;20250;-43
2023/07/17 13:15:37;;;;;;;;;;;18.90;99.90;;;;;;5064377;28;19943;-44
2023/07/17 13:18:03;;;;;;;;;;;18.60;99.90;;;;;;5068362;28;19921;-47
2023/07/17 13:20:28;;;;;;;;;;;18.10;99.90;;;;;;5068341;28;20062;-43
2023/07/17 13:22:57;;;;;;;;;;;;;;;;;;5066417;28;19925;-43
2023/07/17 13:25:22;;;;;;;;;;;17.70;99.90;;;;;;5069564;28;19927;-45
2023/07/17 13:27:48;;;;;;;;;;;17.70;99.90;;;;;;5069802;28;19921;-46
2023/07/17 13:30:13;;;;;;;;;;;17.70;99.90;;;;;;5068263;28;20042;-43
2023/07/17 13:32:39;;;;;;;;;;;17.70;99.90;;;;;;5068414;28;19967;-44
2023/07/17 13:35:05;;;;;;;;;;;17.80;99.90;;;;;;5069391;28;19921;-43
2023/07/17 13:37:30;;;;;;;;;;;17.90;99.90;;;;;;5068268;28;19924;-43
2023/07/17 13:39:56;;;;;;;;;;;17.90;99.90;;;;;;5067283;28;19928;-43
2023/07/17 13:42:22;;;;;;;;;;;18.10;99.90;;;;;;5066109;28;19936;-43
2023/07/17 13:44:47;;;;;;;;;;;18.20;99.90;;;;;;5072957;28;20011;-43
2023/07/17 13:47:13;;;;;;;;;;;18.30;99.90;;;;;;5070646;28;19920;-43
2023/07/17 13:49:38;;;;;;;;;;;18.50;99.90;;;;;;5068881;28;19962;-44
2023/07/17 13:52:04;;;;;;;;;;;19.20;99.90;;;;;;5067059;28;20326;-46
2023/07/17 13:54:29;;;;;;;;;;;19.10;99.90;;;;;;5068230;28;19997;-43
2023/07/17 13:56:55;;;;;;;;;;;19.40;99.90;;;;;;5072850;28;19920;-46
2023/07/17 13:59:21;;;;;;;;;;;;;;;;;;5068206;28;19932;-45
2023/07/17 14:01:47;;;;;;;;;;;19.90;99.90;;;;;;5068511;28;19924;-46
2023/07/17 14:04:12;;;;;;;;;;;20.20;99.90;;;;;;5067882;28;19989;-44
2023/07/17 14:06:38;;;;;;;;;;;;;;;;;;5066407;28;19928;-46
2023/07/17 14:09:04;;;;;;;;;;;20.40;99.90;;;;;;5063336;28;20054;-44
2023/07/17 14:11:29;;;;;;;;;;;20.50;99.90;;;;;;5069375;28;19959;-43
2023/07/17 14:13:57;;;;;;;;;;;20.50;99.90;;;;;;5066262;28;20417;-47
2023/07/17 14:16:23;;;;;;;;;;;20.50;99.90;;;;;;5067681;28;20337;-45